Time;durP1;ratioP1;P1;durP2;ratioP2;P2;SDS_P1;SDS_P2;PMS_P1;PMS_P2;Temp;Humidity;BMP_temperature;BMP_pressure;BME280_temperature;BME280_humidity;BME280_pressure;Samples;Min_cycle;Max_cycle;Signal;HPM_P1;HPM_P2
2022/10/03 00:02:29;;;;;;;32.40;11.00;;;9.00;99.90;;;;;;4998375;28;20959;-72
2022/10/03 00:05:08;;;;;;;27.27;11.75;;;9.00;99.90;;;;;;5002093;28;20493;-73
2022/10/03 00:07:49;;;;;;;25.95;10.85;;;9.10;99.90;;;;;;4997559;28;20469;-73
2022/10/03 00:10:18;;;;;;;29.70;11.00;;;9.00;99.90;;;;;;4997495;28;20379;-74
2022/10/03 00:12:49;;;;;;;29.33;10.52;;;8.90;99.90;;;;;;4994771;28;20407;-74
2022/10/03 00:15:25;;;;;;;25.15;9.70;;;8.90;99.90;;;;;;4997271;28;20477;-74
2022/10/03 00:18:24;;;;;;;27.15;12.05;;;8.90;99.90;;;;;;4997729;28;20385;-73
2022/10/03 00:21:16;;;;;;;24.48;10.13;;;8.90;99.90;;;;;;4998544;28;20386;-71
2022/10/03 00:24:22;;;;;;;34.33;11.63;;;8.90;99.90;;;;;;4997221;28;20397;-73
2022/10/03 00:27:16;;;;;;;34.03;11.88;;;8.90;99.90;;;;;;4977983;28;20398;-73
2022/10/03 00:29:55;;;;;;;31.60;13.13;;;8.90;99.90;;;;;;4998667;28;20382;-74
2022/10/03 00:33:01;;;;;;;40.10;13.90;;;9.00;99.90;;;;;;4996995;28;21078;-73
2022/10/03 00:35:48;;;;;;;26.83;10.23;;;9.00;99.90;;;;;;4996049;28;20382;-73
2022/10/03 00:38:22;;;;;;;30.13;11.17;;;8.90;99.90;;;;;;4998128;28;20379;-73
2022/10/03 00:41:22;;;;;;;23.80;10.40;;;8.90;99.90;;;;;;4998264;28;20415;-73
2022/10/03 00:44:05;;;;;;;25.95;11.18;;;8.80;99.90;;;;;;4997036;28;20813;-73
2022/10/03 00:46:49;;;;;;;32.08;11.20;;;8.80;99.90;;;;;;4997497;28;20393;-72
2022/10/03 00:49:52;;;;;;;29.48;11.68;;;8.70;99.90;;;;;;4997515;28;20382;-72
2022/10/03 00:52:39;;;;;;;28.25;10.40;;;8.70;99.90;;;;;;4996098;28;20414;-74
2022/10/03 00:55:23;;;;;;;25.97;10.30;;;8.70;99.90;;;;;;4997198;28;20398;-74
2022/10/03 00:58:03;;;;;;;29.23;9.93;;;8.70;99.90;;;;;;4996917;28;20390;-73
2022/10/03 01:00:31;;;;;;;28.15;9.75;;;8.70;99.90;;;;;;4996501;28;20387;-72
2022/10/03 01:03:15;;;;;;;32.15;11.77;;;8.70;99.90;;;;;;4995040;28;20390;-73
2022/10/03 01:06:01;;;;;;;32.47;10.73;;;8.80;99.90;;;;;;4995582;28;20393;-74
2022/10/03 01:08:41;;;;;;;26.05;9.25;;;8.70;99.90;;;;;;4993944;28;20394;-72
2022/10/03 01:11:27;;;;;;;30.80;11.40;;;8.70;99.90;;;;;;4996458;28;20386;-73
2022/10/03 01:13:52;;;;;;;20.35;9.00;;;8.60;99.90;;;;;;4997690;28;20386;-74
2022/10/03 01:16:37;;;;;;;27.90;9.73;;;8.60;99.90;;;;;;4997260;28;20444;-71
2022/10/03 01:19:36;;;;;;;27.27;9.43;;;8.50;99.90;;;;;;4996585;28;20386;-72
2022/10/03 01:22:26;;;;;;;29.50;10.60;;;8.50;99.90;;;;;;4996468;28;20386;-73
2022/10/03 01:25:30;;;;;;;25.67;10.38;;;8.50;99.90;;;;;;4996134;28;20382;-72
2022/10/03 01:31:09;;;;;;;24.27;8.25;;;8.50;99.90;;;;;;4995838;28;20871;-73
2022/10/03 01:33:43;;;;;;;23.27;9.30;;;8.50;99.90;;;;;;4996804;28;20402;-73
2022/10/03 01:36:29;;;;;;;22.42;8.98;;;8.40;99.90;;;;;;4996473;28;20480;-73
2022/10/03 01:39:23;;;;;;;32.50;11.73;;;8.40;99.90;;;;;;4996185;28;20394;-72
2022/10/03 01:41:57;;;;;;;33.15;11.75;;;8.50;99.90;;;;;;4996801;28;20390;-72
2022/10/03 01:44:29;;;;;;;26.73;10.40;;;8.40;99.90;;;;;;4997523;28;20791;-74
2022/10/03 01:47:12;;;;;;;19.63;9.60;;;8.50;99.90;;;;;;4998463;28;20397;-73
2022/10/03 01:49:44;;;;;;;26.40;9.50;;;8.60;99.90;;;;;;4996821;28;20398;-74
2022/10/03 01:52:28;;;;;;;24.00;8.70;;;8.60;99.90;;;;;;4995699;28;20501;-74
2022/10/03 01:55:29;;;;;;;25.23;8.88;;;8.70;99.90;;;;;;4998333;28;20394;-74
2022/10/03 01:58:03;;;;;;;33.08;9.40;;;8.60;99.90;;;;;;5000519;28;20386;-73
2022/10/03 02:00:53;;;;;;;27.73;10.52;;;8.70;99.90;;;;;;4998198;28;20382;-73
2022/10/03 02:03:49;;;;;;;29.37;12.43;;;8.70;99.90;;;;;;4997539;28;20391;-74
2022/10/03 02:06:33;;;;;;;25.92;9.35;;;8.60;99.90;;;;;;4995375;28;20482;-74
2022/10/03 02:09:08;;;;;;;20.70;9.02;;;8.80;99.90;;;;;;4997531;28;20385;-73
2022/10/03 02:11:52;;;;;;;19.98;7.93;;;8.90;99.90;;;;;;4995749;28;20453;-72
2022/10/03 02:14:38;;;;;;;29.55;9.52;;;8.90;99.90;;;;;;4996306;28;20394;-74
2022/10/03 02:17:29;;;;;;;21.85;8.70;;;9.00;99.90;;;;;;4997898;28;20906;-74
2022/10/03 02:19:59;;;;;;;23.23;8.73;;;9.00;99.90;;;;;;4997939;28;20391;-74
2022/10/03 02:22:42;;;;;;;21.90;9.15;;;9.00;99.90;;;;;;4997682;28;20397;-74
2022/10/03 02:25:23;;;;;;;22.35;8.30;;;8.90;99.90;;;;;;4997917;28;20866;-71
2022/10/03 02:28:15;;;;;;;26.10;8.70;;;8.80;99.90;;;;;;4998402;28;20390;-73
2022/10/03 02:30:58;;;;;;;17.83;7.95;;;8.70;99.90;;;;;;4998227;28;20763;-74
2022/10/03 02:34:00;;;;;;;23.77;8.23;;;8.60;99.90;;;;;;4997958;28;20501;-71
2022/10/03 02:37:03;;;;;;;25.98;8.60;;;8.50;99.90;;;;;;4998170;28;20397;-72
2022/10/03 02:40:05;;;;;;;28.55;9.80;;;8.50;99.90;;;;;;4999843;28;20465;-74
2022/10/03 02:43:04;;;;;;;19.23;8.70;;;8.50;99.90;;;;;;5003654;28;20395;-74
2022/10/03 02:46:05;;;;;;;25.10;11.15;;;8.50;99.90;;;;;;5002793;28;20409;-74
2022/10/03 02:49:06;;;;;;;31.58;10.73;;;8.40;99.90;;;;;;5003551;28;20391;-74
2022/10/03 02:51:53;;;;;;;27.20;10.53;;;8.40;99.90;;;;;;4998680;28;20406;-72
2022/10/03 02:54:42;;;;;;;25.60;10.63;;;8.40;99.90;;;;;;4998550;28;20446;-73
2022/10/03 02:57:08;;;;;;;19.17;8.30;;;8.40;99.90;;;;;;4998085;28;20382;-72
2022/10/03 02:59:54;;;;;;;25.63;9.57;;;8.70;99.90;;;;;;4998032;28;20458;-74
2022/10/03 03:02:59;;;;;;;24.65;10.65;;;8.60;99.90;;;;;;4997146;28;20772;-74
2022/10/03 03:05:43;;;;;;;29.70;11.40;;;8.50;99.90;;;;;;4997832;28;20398;-74
2022/10/03 03:08:18;;;;;;;25.65;10.60;;;8.50;99.90;;;;;;4996399;28;20895;-73
2022/10/03 03:10:58;;;;;;;25.27;11.32;;;8.50;99.90;;;;;;4997531;28;20397;-72
2022/10/03 03:13:35;;;;;;;32.42;10.70;;;8.50;99.90;;;;;;4997609;28;20448;-72
2022/10/03 03:16:13;;;;;;;27.48;10.02;;;8.70;99.90;;;;;;4999028;28;20952;-73
2022/10/03 03:18:47;;;;;;;27.45;12.52;;;8.80;99.90;;;;;;4998747;28;20824;-72
2022/10/03 03:21:22;;;;;;;20.20;9.13;;;8.90;99.90;;;;;;4996496;28;20863;-74
2022/10/03 03:24:04;;;;;;;30.27;10.50;;;9.00;99.90;;;;;;4996478;28;20383;-73
2022/10/03 03:26:39;;;;;;;35.58;11.52;;;9.10;99.90;;;;;;4998860;28;20394;-73
2022/10/03 03:29:28;;;;;;;23.00;9.65;;;9.20;99.90;;;;;;4997148;28;20456;-74
2022/10/03 03:32:07;;;;;;;23.77;9.20;;;9.30;99.90;;;;;;4997032;28;20415;-74
2022/10/03 03:34:41;;;;;;;24.35;8.93;;;9.30;99.90;;;;;;4998154;28;20383;-73
2022/10/03 03:37:20;;;;;;;26.65;9.95;;;9.30;99.90;;;;;;4999302;28;20383;-74
2022/10/03 03:40:07;;;;;;;22.13;8.83;;;9.40;99.90;;;;;;4997465;28;20500;-73
2022/10/03 03:43:03;;;;;;;23.40;9.27;;;9.40;99.90;;;;;;4997084;28;20398;-73
2022/10/03 03:45:37;;;;;;;20.50;9.13;;;9.50;99.90;;;;;;4994322;28;20414;-72
2022/10/03 03:48:13;;;;;;;24.58;9.63;;;9.50;99.90;;;;;;4993749;28;20473;-72
2022/10/03 03:50:56;;;;;;;24.13;8.75;;;9.60;99.90;;;;;;4993256;28;20382;-72
2022/10/03 03:53:54;;;;;;;26.17;8.88;;;9.60;99.90;;;;;;4993663;28;20433;-72
2022/10/03 03:56:48;;;;;;;27.20;8.70;;;9.70;99.90;;;;;;4993491;28;20383;-72
2022/10/03 03:59:22;;;;;;;21.13;8.98;;;9.70;99.90;;;;;;4993083;28;20736;-72
2022/10/03 04:02:30;;;;;;;24.88;9.60;;;9.70;99.90;;;;;;4992719;28;20755;-72
2022/10/03 04:05:13;;;;;;;23.38;9.00;;;9.70;99.90;;;;;;4991482;28;20497;-71
2022/10/03 04:08:09;;;;;;;25.80;8.67;;;9.80;99.90;;;;;;4992741;28;20386;-71
2022/10/03 04:10:41;;;;;;;23.95;8.80;;;9.80;99.90;;;;;;4992744;28;20440;-73
2022/10/03 04:13:32;;;;;;;28.23;8.93;;;9.80;99.90;;;;;;4992348;28;20413;-73
2022/10/03 04:18:56;;;;;;;19.88;8.30;;;9.90;99.90;;;;;;4992701;28;20389;-72
2022/10/03 04:19:24;;;;;;;29.10;10.00;;;9.90;99.90;;;;;;4992661;28;20414;-72
2022/10/03 04:21:56;;;;;;;21.73;8.40;;;9.90;99.90;;;;;;4992478;28;20397;-72
2022/10/03 04:24:28;;;;;;;21.33;8.75;;;9.90;99.90;;;;;;4992775;28;20731;-73
2022/10/03 04:27:28;;;;;;;23.00;9.15;;;10.00;99.90;;;;;;4992501;28;20395;-73
2022/10/03 04:29:59;;;;;;;24.83;8.80;;;10.00;99.90;;;;;;4992424;28;20394;-72
2022/10/03 04:33:01;;;;;;;23.02;9.50;;;10.00;99.90;;;;;;4991892;28;20902;-71
2022/10/03 04:35:50;;;;;;;20.55;8.98;;;10.00;99.90;;;;;;4992121;28;20850;-74
2022/10/03 04:38:43;;;;;;;23.97;9.03;;;10.00;99.90;;;;;;4991808;28;20389;-73
2022/10/03 04:41:26;;;;;;;24.92;9.65;;;10.00;99.90;;;;;;4991988;28;20416;-72
2022/10/03 04:44:10;;;;;;;26.02;9.32;;;10.00;99.90;;;;;;4992510;28;20378;-72
2022/10/03 04:47:03;;;;;;;23.65;9.63;;;10.00;99.90;;;;;;4992090;28;20403;-73
2022/10/03 04:49:54;;;;;;;22.65;9.68;;;10.10;99.90;;;;;;4992111;28;20383;-73
2022/10/03 04:52:38;;;;;;;25.30;9.63;;;10.00;99.90;;;;;;4991689;28;20410;-74
2022/10/03 04:55:06;;;;;;;20.85;9.30;;;10.00;99.90;;;;;;4992210;28;20383;-71
2022/10/03 04:57:52;;;;;;;23.35;10.55;;;10.00;99.90;;;;;;4992008;28;20393;-71
2022/10/03 05:00:28;;;;;;;29.27;9.77;;;9.90;99.90;;;;;;4992045;28;20402;-73
2022/10/03 05:03:03;;;;;;;25.13;10.18;;;9.90;99.90;;;;;;4991940;28;20521;-71
2022/10/03 05:05:39;;;;;;;26.15;11.25;;;9.90;99.90;;;;;;4994668;28;20528;-73
2022/10/03 05:08:39;;;;;;;23.25;9.77;;;9.90;99.90;;;;;;4994481;28;20392;-73
2022/10/03 05:11:18;;;;;;;25.23;10.40;;;9.80;99.90;;;;;;4993261;28;20464;-73
2022/10/03 05:14:07;;;;;;;24.83;10.35;;;9.80;99.90;;;;;;4992759;28;20401;-72
2022/10/03 05:16:36;;;;;;;26.52;10.88;;;9.80;99.90;;;;;;4991884;28;20473;-73
2022/10/03 05:19:36;;;;;;;26.85;9.18;;;9.80;99.90;;;;;;4991738;28;20894;-73
2022/10/03 05:22:29;;;;;;;24.77;9.40;;;9.90;99.90;;;;;;4992027;28;20804;-73
2022/10/03 05:25:24;;;;;;;27.00;10.80;;;9.90;99.90;;;;;;4992495;28;20383;-73
2022/10/03 05:28:15;;;;;;;29.48;10.35;;;9.90;99.90;;;;;;4996739;28;20796;-72
2022/10/03 05:30:52;;;;;;;24.33;10.20;;;10.00;99.90;;;;;;4995213;28;20838;-72
2022/10/03 05:34:01;;;;;;;26.45;9.55;;;10.00;99.90;;;;;;4991417;28;20900;-72
2022/10/03 05:36:40;;;;;;;19.50;9.45;;;10.00;99.90;;;;;;4969834;28;20403;-72
2022/10/03 05:39:36;;;;;;;20.67;9.60;;;10.00;99.90;;;;;;4990495;28;20386;-72
2022/10/03 05:42:22;;;;;;;21.73;9.50;;;10.00;99.90;;;;;;4991561;28;20394;-72
2022/10/03 05:45:07;;;;;;;27.67;10.50;;;10.10;99.90;;;;;;4991440;28;20872;-74
2022/10/03 05:47:50;;;;;;;23.70;9.90;;;10.10;99.90;;;;;;4992295;28;20405;-72
2022/10/03 05:50:46;;;;;;;25.13;10.55;;;10.10;99.90;;;;;;4995741;28;20465;-72
2022/10/03 05:53:52;;;;;;;24.53;9.63;;;10.10;99.90;;;;;;4995375;28;20488;-73
2022/10/03 05:56:45;;;;;;;23.85;9.30;;;10.20;99.90;;;;;;4995755;28;20387;-72
2022/10/03 05:59:42;;;;;;;23.33;9.40;;;10.20;99.90;;;;;;4995880;28;20421;-72
2022/10/03 06:02:26;;;;;;;18.13;9.43;;;10.30;99.90;;;;;;4995405;28;20840;-73
2022/10/03 06:05:14;;;;;;;25.95;9.75;;;10.30;99.90;;;;;;4995500;28;20747;-73
2022/10/03 06:08:16;;;;;;;25.05;10.10;;;10.30;99.90;;;;;;4995477;28;20405;-72
2022/10/03 06:10:54;;;;;;;20.00;9.95;;;10.40;99.90;;;;;;4995264;28;20887;-73
2022/10/03 06:13:29;;;;;;;22.10;9.50;;;10.40;99.90;;;;;;4994852;28;20492;-73
2022/10/03 06:16:22;;;;;;;36.05;9.90;;;10.40;99.90;;;;;;4995077;28;20822;-72
2022/10/03 06:19:05;;;;;;;24.65;9.55;;;10.40;99.90;;;;;;4995135;28;20382;-73
2022/10/03 06:21:48;;;;;;;28.50;9.73;;;10.50;99.90;;;;;;4995048;28;20505;-72
2022/10/03 06:24:45;;;;;;;27.17;10.90;;;10.50;99.90;;;;;;4994848;28;20476;-73
2022/10/03 06:27:38;;;;;;;16.63;9.27;;;10.50;99.90;;;;;;4995165;28;20397;-72
2022/10/03 06:30:42;;;;;;;22.13;9.75;;;10.70;99.90;;;;;;4994870;28;20457;-73
2022/10/03 06:33:55;;;;;;;25.08;9.60;;;10.70;99.90;;;;;;4993559;28;20497;-72
2022/10/03 06:36:39;;;;;;;24.70;10.70;;;10.80;99.90;;;;;;4994543;28;20418;-73
2022/10/03 06:39:38;;;;;;;24.33;9.50;;;10.90;99.90;;;;;;4994905;28;20437;-73
2022/10/03 06:42:13;;;;;;;24.33;9.70;;;10.90;99.90;;;;;;4994494;28;20876;-73
2022/10/03 06:45:08;;;;;;;28.30;10.20;;;10.90;99.90;;;;;;4994211;28;20402;-73
2022/10/03 06:47:40;;;;;;;22.63;10.13;;;10.90;99.90;;;;;;4994694;28;20390;-73
2022/10/03 06:50:17;;;;;;;27.05;10.23;;;10.90;99.90;;;;;;4994744;28;20391;-72
2022/10/03 06:53:00;;;;;;;18.85;9.75;;;10.80;99.90;;;;;;4994768;28;20899;-73
2022/10/03 06:55:46;;;;;;;30.00;10.75;;;10.70;99.90;;;;;;4994383;28;20407;-72
2022/10/03 06:58:52;;;;;;;25.98;12.77;;;10.80;99.90;;;;;;4994733;28;20500;-72
2022/10/03 07:01:38;;;;;;;25.08;10.00;;;10.80;99.90;;;;;;4994144;28;20485;-74
2022/10/03 07:04:39;;;;;;;22.13;10.52;;;11.00;99.90;;;;;;4994128;28;20876;-74
2022/10/03 07:07:25;;;;;;;23.50;10.20;;;11.10;99.90;;;;;;4996312;28;20879;-72
2022/10/03 07:10:19;;;;;;;21.52;9.85;;;11.30;99.90;;;;;;4993759;28;20891;-72
2022/10/03 07:13:14;;;;;;;25.30;10.75;;;11.40;99.90;;;;;;4993911;28;20410;-71
2022/10/03 07:16:08;;;;;;;23.65;10.90;;;11.40;99.90;;;;;;4994129;28;20379;-72
2022/10/03 07:19:02;;;;;;;24.33;10.10;;;11.50;99.90;;;;;;4993726;28;20400;-72
2022/10/03 07:21:34;;;;;;;27.13;10.52;;;11.70;99.90;;;;;;4993551;28;20383;-73
2022/10/03 07:24:12;;;;;;;22.38;10.75;;;11.90;99.90;;;;;;4993479;28;20394;-73
2022/10/03 07:26:56;;;;;;;28.20;11.20;;;12.10;99.00;;;;;;4993083;28;20848;-73
2022/10/03 07:29:49;;;;;;;22.35;10.63;;;12.20;95.90;;;;;;4993035;28;20537;-72
2022/10/03 07:32:33;;;;;;;24.35;10.10;;;12.20;95.00;;;;;;4993737;28;20418;-73
2022/10/03 07:35:21;;;;;;;21.73;9.85;;;12.30;94.40;;;;;;4993700;28;20383;-72
2022/10/03 07:38:59;;;;;;;24.67;10.40;;;12.30;90.10;;;;;;5003726;28;20420;-72
2022/10/03 07:41:45;;;;;;;23.65;10.50;;;12.50;89.60;;;;;;5011534;28;20404;-71
2022/10/03 07:44:35;;;;;;;24.20;10.95;;;12.60;86.60;;;;;;5011492;28;20400;-71
2022/10/03 07:47:32;;;;;;;21.88;10.38;;;12.70;85.30;;;;;;5014920;28;20401;-71
2022/10/03 07:50:21;;;;;;;23.73;9.82;;;12.80;84.10;;;;;;5030336;28;20383;-71
2022/10/03 07:52:53;;;;;;;29.93;10.70;;;12.90;80.20;;;;;;5007127;28;20472;-72
2022/10/03 07:55:55;;;;;;;26.08;10.45;;;12.90;81.40;;;;;;5009554;28;20877;-72
2022/10/03 07:58:55;;;;;;;24.50;12.17;;;12.90;81.10;;;;;;5009896;28;20723;-72
2022/10/03 08:01:38;;;;;;;20.25;10.23;;;13.10;79.40;;;;;;5008867;28;20416;-72
2022/10/03 08:04:35;;;;;;;20.92;9.82;;;13.10;78.50;;;;;;5010128;28;20384;-71
2022/10/03 08:07:18;;;;;;;23.00;10.27;;;13.10;78.00;;;;;;5011544;28;20389;-72
2022/10/03 08:10:02;;;;;;;26.17;12.63;;;13.00;79.20;;;;;;5021053;28;20400;-71
2022/10/03 08:12:57;;;;;;;28.00;11.27;;;13.00;80.90;;;;;;5015356;28;20420;-72
2022/10/03 08:15:55;;;;;;;20.67;10.43;;;13.10;80.30;;;;;;5023180;28;20401;-71
2022/10/03 08:18:20;;;;;;;23.33;10.60;;;13.10;80.30;;;;;;5015296;28;20437;-72
2022/10/03 08:20:54;;;;;;;32.40;12.83;;;13.30;80.40;;;;;;5026403;28;20415;-70
2022/10/03 08:23:34;;;;;;;25.65;11.70;;;13.60;75.00;;;;;;5026119;28;20403;-71
2022/10/03 08:26:31;;;;;;;31.65;10.90;;;13.80;73.10;;;;;;5009785;28;20416;-70
2022/10/03 08:29:25;;;;;;;30.85;11.45;;;14.10;69.90;;;;;;5009939;28;20726;-71
2022/10/03 08:32:12;;;;;;;25.23;11.10;;;14.10;67.10;;;;;;5002973;28;20432;-71
2022/10/03 08:35:10;;;;;;;26.70;10.60;;;14.30;66.70;;;;;;5009535;28;20388;-72
2022/10/03 08:37:55;;;;;;;18.88;10.32;;;14.70;64.10;;;;;;5006371;28;20478;-72
2022/10/03 08:40:29;;;;;;;25.92;11.27;;;14.90;60.80;;;;;;5009304;28;20381;-72
2022/10/03 08:43:10;;;;;;;23.48;9.23;;;15.10;58.90;;;;;;5008394;28;20393;-72
2022/10/03 08:46:00;;;;;;;28.10;11.02;;;15.10;58.60;;;;;;5009078;28;20488;-71
2022/10/03 08:49:04;;;;;;;21.13;10.05;;;14.90;57.90;;;;;;5008820;28;20403;-72
2022/10/03 08:51:54;;;;;;;30.05;13.88;;;14.70;60.00;;;;;;5007855;28;20444;-71
2022/10/03 08:54:38;;;;;;;20.42;10.13;;;14.40;61.30;;;;;;5009154;28;20393;-71
2022/10/03 08:57:20;;;;;;;28.05;11.25;;;14.40;63.20;;;;;;5008611;28;20432;-70
2022/10/03 08:59:51;;;;;;;21.33;10.53;;;14.40;63.40;;;;;;5009370;28;20401;-73
2022/10/03 09:02:35;;;;;;;24.63;10.70;;;14.40;64.60;;;;;;5008572;28;20401;-70
2022/10/03 09:05:25;;;;;;;22.27;10.70;;;14.60;63.90;;;;;;5003975;28;20512;-72
2022/10/03 09:08:30;;;;;;;22.05;9.43;;;14.70;62.20;;;;;;5001426;28;20412;-71
2022/10/03 09:11:27;;;;;;;25.02;9.80;;;14.70;58.80;;;;;;5024000;28;20891;-71
2022/10/03 09:14:26;;;;;;;23.10;8.70;;;14.80;57.70;;;;;;5019563;28;20405;-72
2022/10/03 09:17:33;;;;;;;21.27;8.45;;;14.90;56.00;;;;;;4995107;28;20397;-76
2022/10/03 09:20:18;;;;;;;19.63;8.57;;;14.80;56.60;;;;;;5011584;28;20913;-70
2022/10/03 09:23:14;;;;;;;21.00;8.68;;;14.80;57.60;;;;;;5010369;28;20413;-71
2022/10/03 09:26:07;;;;;;;20.45;8.40;;;14.70;58.30;;;;;;4991656;28;20791;-70
2022/10/03 09:28:48;;;;;;;21.17;9.00;;;14.60;58.50;;;;;;4991949;28;20398;-73
2022/10/03 09:31:49;;;;;;;21.33;8.63;;;14.70;57.80;;;;;;5008734;28;20408;-72
2022/10/03 09:34:24;;;;;;;20.88;8.18;;;14.90;57.70;;;;;;4969536;28;20647;-70
2022/10/03 09:37:12;;;;;;;22.08;6.95;;;15.00;56.40;;;;;;5005625;28;20425;-71
2022/10/03 09:40:08;;;;;;;21.80;6.88;;;15.20;54.90;;;;;;5012029;28;20477;-72
2022/10/03 09:43:06;;;;;;;16.75;6.40;;;15.20;55.70;;;;;;5011237;28;20785;-71
2022/10/03 09:45:48;;;;;;;20.20;6.75;;;15.30;53.90;;;;;;5039190;23;20439;-73
2022/10/03 09:48:40;;;;;;;16.70;6.50;;;15.80;49.70;;;;;;5044046;28;20384;-73
2022/10/03 09:51:21;;;;;;;13.73;5.47;;;15.80;49.20;;;;;;5039207;28;20383;-71
2022/10/03 09:54:15;;;;;;;19.70;6.90;;;15.70;49.20;;;;;;5035942;28;20817;-71
2022/10/03 09:56:59;;;;;;;18.95;6.03;;;15.70;50.80;;;;;;5032170;28;20383;-71
2022/10/03 09:59:46;;;;;;;16.38;5.47;;;15.60;51.10;;;;;;5031569;28;20466;-71
2022/10/03 10:02:21;;;;;;;17.10;5.07;;;15.90;48.70;;;;;;5031251;28;20382;-72
2022/10/03 10:04:53;;;;;;;20.55;4.95;;;16.00;47.10;;;;;;5031624;28;20870;-73
2022/10/03 10:07:40;;;;;;;20.00;4.63;;;16.00;46.70;;;;;;5031751;28;20466;-71
2022/10/03 10:10:31;;;;;;;15.65;4.68;;;16.00;47.20;;;;;;5031677;28;20937;-72
2022/10/03 10:13:15;;;;;;;13.77;4.60;;;16.40;45.70;;;;;;5031334;28;20410;-72
2022/10/03 10:15:46;;;;;;;18.02;5.10;;;16.50;42.20;;;;;;5031511;28;20383;-73
2022/10/03 10:18:27;;;;;;;16.20;4.97;;;16.30;42.50;;;;;;5031269;28;20474;-71
2022/10/03 10:21:11;;;;;;;15.00;4.85;;;16.50;42.50;;;;;;5030685;28;20445;-76
2022/10/03 10:24:06;;;;;;;13.25;5.00;;;16.60;43.10;;;;;;5030932;28;20398;-73
2022/10/03 10:27:03;;;;;;;11.00;4.45;;;16.60;43.60;;;;;;5031085;28;20383;-73
2022/10/03 10:29:54;;;;;;;19.52;5.60;;;16.70;41.70;;;;;;5031354;28;20394;-73
2022/10/03 10:32:45;;;;;;;21.80;6.20;;;16.90;41.50;;;;;;5029687;28;20419;-71
2022/10/03 10:35:14;;;;;;;22.17;5.13;;;17.10;39.60;;;;;;5032583;28;20394;-71
2022/10/03 10:38:24;;;;;;;16.08;4.00;;;17.30;39.30;;;;;;5050167;28;20449;-71
2022/10/03 10:41:28;;;;;;;14.95;4.05;;;17.50;36.40;;;;;;5034659;28;20379;-71
2022/10/03 10:44:16;;;;;;;12.00;3.10;;;17.50;35.20;;;;;;5050883;28;20398;-72
2022/10/03 10:46:58;;;;;;;11.93;3.40;;;17.10;35.80;;;;;;5034251;28;20768;-71
2022/10/03 10:50:05;;;;;;;13.77;3.47;;;17.20;36.70;;;;;;5034592;28;20427;-70
2022/10/03 10:53:04;;;;;;;13.25;3.30;;;17.30;36.70;;;;;;5034525;28;20422;-72
2022/10/03 10:55:51;;;;;;;16.58;3.53;;;17.20;37.30;;;;;;5034599;28;20452;-70
2022/10/03 10:58:31;;;;;;;16.02;3.47;;;17.10;38.10;;;;;;5034206;28;20399;-72
2022/10/03 11:01:42;;;;;;;13.43;4.03;;;17.30;37.70;;;;;;5033619;28;20383;-71
2022/10/03 11:04:32;;;;;;;12.77;3.73;;;17.50;33.60;;;;;;5025912;28;20564;-71
2022/10/03 11:07:11;;;;;;;11.10;3.10;;;17.50;31.40;;;;;;5034341;28;20387;-72
2022/10/03 11:10:04;;;;;;;12.25;3.60;;;17.70;31.80;;;;;;5035216;28;20418;-74
2022/10/03 11:13:13;;;;;;;15.55;3.50;;;18.20;30.50;;;;;;5033677;28;20408;-69
2022/10/03 11:15:46;;;;;;;9.70;3.40;;;18.30;28.10;;;;;;5034113;28;20382;-71
2022/10/03 11:18:33;;;;;;;9.30;3.00;;;18.20;28.00;;;;;;5034527;28;20383;-70
2022/10/03 11:21:40;;;;;;;16.08;3.90;;;18.30;28.20;;;;;;5034820;28;20433;-71
2022/10/03 11:24:26;;;;;;;9.55;2.65;;;18.50;28.40;;;;;;5033768;28;20466;-72
2022/10/03 11:27:26;;;;;;;13.13;3.17;;;19.00;26.30;;;;;;5034448;28;20383;-70
2022/10/03 11:30:19;;;;;;;8.60;3.30;;;19.00;24.30;;;;;;5036472;28;20379;-70
2022/10/03 11:33:05;;;;;;;11.18;3.30;;;18.80;25.50;;;;;;5035520;28;20837;-71
2022/10/03 11:35:56;;;;;;;14.88;2.90;;;18.50;26.00;;;;;;5036151;28;20380;-69
2022/10/03 11:38:38;;;;;;;13.35;2.92;;;18.60;26.30;;;;;;5036633;28;20383;-70
2022/10/03 11:41:28;;;;;;;12.70;3.10;;;18.50;26.20;;;;;;5036356;28;20736;-71
2022/10/03 11:44:25;;;;;;;12.57;3.03;;;18.20;26.90;;;;;;5033816;28;20390;-72
2022/10/03 11:47:12;;;;;;;13.43;3.30;;;18.40;28.20;;;;;;5030090;28;20914;-72
2022/10/03 11:50:09;;;;;;;8.80;2.90;;;18.50;26.80;;;;;;5032655;28;20383;-71
2022/10/03 11:52:54;;;;;;;11.07;2.50;;;18.80;25.80;;;;;;5032911;28;20415;-71
2022/10/03 11:55:54;;;;;;;8.00;2.10;;;19.00;25.50;;;;;;5032851;28;20840;-71
2022/10/03 11:58:41;;;;;;;9.20;2.25;;;18.60;25.00;;;;;;5032619;28;20414;-70
2022/10/03 12:01:34;;;;;;;12.68;3.55;;;18.90;24.60;;;;;;5047430;28;20470;-72
2022/10/03 12:04:09;;;;;;;12.95;3.08;;;19.20;23.90;;;;;;5047706;28;20498;-72
2022/10/03 12:10:10;;;;;;;10.25;3.20;;;19.80;22.50;;;;;;5033130;28;20899;-71
2022/10/03 12:12:43;;;;;;;12.32;3.00;;;19.70;22.70;;;;;;5032537;28;20487;-71
2022/10/03 12:15:27;;;;;;;6.85;2.40;;;20.00;22.70;;;;;;5032731;28;20798;-70
2022/10/03 12:18:15;;;;;;;6.55;2.05;;;20.10;19.90;;;;;;5032667;28;20383;-73
2022/10/03 12:20:59;;;;;;;11.77;3.03;;;19.60;21.10;;;;;;5032774;28;20864;-71
2022/10/03 12:23:53;;;;;;;12.05;2.88;;;19.40;21.70;;;;;;5033579;28;20740;-71
2022/10/03 12:27:01;;;;;;;10.90;3.00;;;19.10;22.10;;;;;;5032464;28;20379;-71
2022/10/03 12:29:31;;;;;;;9.53;2.80;;;19.10;23.50;;;;;;5021064;28;20398;-72
2022/10/03 12:32:21;;;;;;;8.85;2.90;;;18.90;24.40;;;;;;5032140;28;20458;-71
2022/10/03 12:35:07;;;;;;;7.70;2.58;;;18.60;23.80;;;;;;5033025;28;20383;-73
2022/10/03 12:37:42;;;;;;;8.40;2.60;;;18.50;24.70;;;;;;5032970;28;20542;-72
2022/10/03 12:40:26;;;;;;;8.48;2.60;;;18.60;24.30;;;;;;5033780;28;20672;-71
2022/10/03 12:43:03;;;;;;;9.15;2.80;;;18.80;24.00;;;;;;5032965;28;20383;-72
2022/10/03 12:45:38;;;;;;;8.52;3.00;;;19.30;23.90;;;;;;5033094;28;20398;-71
2022/10/03 12:48:17;;;;;;;9.90;4.03;;;19.70;20.80;;;;;;5032409;28;20391;-73
2022/10/03 12:50:54;;;;;;;9.38;2.58;;;20.10;20.40;;;;;;5032682;28;20414;-72
2022/10/03 12:53:47;;;;;;;7.27;2.50;;;20.30;19.40;;;;;;5032850;28;20881;-73
2022/10/03 12:56:42;;;;;;;7.45;2.50;;;20.50;18.70;;;;;;5034313;28;20457;-72
2022/10/03 12:59:40;;;;;;;8.95;2.40;;;20.50;18.70;;;;;;5035199;28;20374;-71
2022/10/03 13:02:39;;;;;;;7.70;2.60;;;20.50;19.80;;;;;;5037768;28;20476;-70
2022/10/03 13:05:54;;;;;;;7.43;2.20;;;20.20;19.70;;;;;;5039687;28;20429;-72
2022/10/03 13:08:35;;;;;;;8.52;2.50;;;20.00;19.80;;;;;;5025128;28;20391;-72
2022/10/03 13:11:39;;;;;;;9.10;2.55;;;19.90;19.90;;;;;;5032651;28;20387;-71
2022/10/03 13:14:27;;;;;;;13.05;2.50;;;19.20;21.20;;;;;;5027221;28;20446;-72
2022/10/03 13:17:23;;;;;;;6.77;2.60;;;19.00;22.40;;;;;;5031293;28;20387;-70
2022/10/03 13:20:02;;;;;;;8.45;2.90;;;19.20;22.70;;;;;;5031293;28;20382;-70
2022/10/03 13:22:27;;;;;;;8.20;2.53;;;19.30;22.90;;;;;;5030885;28;20406;-71
2022/10/03 13:25:21;;;;;;;10.17;2.60;;;19.20;22.70;;;;;;5030784;28;20424;-70
2022/10/03 13:28:00;;;;;;;9.70;2.47;;;19.10;22.60;;;;;;5031355;28;20438;-71
2022/10/03 13:30:35;;;;;;;10.38;2.40;;;19.10;22.00;;;;;;5030726;28;20501;-72
2022/10/03 13:33:16;;;;;;;9.05;2.40;;;19.20;22.50;;;;;;5030539;28;20505;-71
2022/10/03 13:35:58;;;;;;;10.18;2.60;;;19.40;21.30;;;;;;5030985;28;20798;-71
2022/10/03 13:38:47;;;;;;;8.73;3.00;;;19.20;22.40;;;;;;5030915;28;20383;-70
2022/10/03 13:41:28;;;;;;;7.88;2.20;;;19.00;22.90;;;;;;5030684;28;20382;-70
2022/10/03 13:44:22;;;;;;;7.82;2.55;;;19.30;22.80;;;;;;5031044;28;20397;-70
2022/10/03 13:47:10;;;;;;;8.02;2.15;;;19.60;21.00;;;;;;5030735;28;20399;-70
2022/10/03 13:50:00;;;;;;;8.00;2.30;;;20.30;19.80;;;;;;5030853;28;20426;-70
2022/10/03 13:52:41;;;;;;;8.77;2.80;;;20.60;18.10;;;;;;5037287;28;20395;-70
2022/10/03 13:55:25;;;;;;;12.95;2.60;;;20.90;18.50;;;;;;5036377;28;20379;-69
2022/10/03 13:58:31;;;;;;;7.13;2.20;;;21.30;17.40;;;;;;5036181;28;20566;-71
2022/10/03 14:01:03;;;;;;;9.55;2.20;;;21.70;16.20;;;;;;5037722;28;20375;-70
2022/10/03 14:04:01;;;;;;;5.43;2.00;;;21.50;16.60;;;;;;5052307;28;20421;-70
2022/10/03 14:06:55;;;;;;;6.53;2.25;;;21.00;16.70;;;;;;5052787;28;20398;-69
2022/10/03 14:09:35;;;;;;;8.97;2.67;;;21.00;17.60;;;;;;5033222;28;20899;-71
2022/10/03 14:12:19;;;;;;;7.47;2.83;;;21.40;16.60;;;;;;5035393;28;20402;-71
2022/10/03 14:15:01;;;;;;;10.13;3.80;;;22.00;16.00;;;;;;5035947;28;20379;-70
2022/10/03 14:17:52;;;;;;;8.07;2.60;;;22.40;15.00;;;;;;5035124;28;20383;-71
2022/10/03 14:20:51;;;;;;;10.68;2.40;;;22.90;13.90;;;;;;5050394;28;20391;-71
2022/10/03 14:23:41;;;;;;;9.37;2.90;;;23.10;12.70;;;;;;5050774;28;20383;-71
2022/10/03 14:26:18;;;;;;;11.97;3.80;;;23.30;12.60;;;;;;5035675;28;20425;-72
2022/10/03 14:28:47;;;;;;;9.20;2.97;;;23.40;11.80;;;;;;5035285;28;20923;-71